sensor_id;sensor_type;location;lat;lon;timestamp;P1;durP1;ratioP1;P2;durP2;ratioP2
24467;SDS011;12634;50.852;5.676;2023-06-22T00:01:45;6.95;;;4.47;;
24467;SDS011;12634;50.852;5.676;2023-06-22T00:04:12;6.10;;;4.05;;
24467;SDS011;12634;50.852;5.676;2023-06-22T00:06:39;7.82;;;4.45;;
24467;SDS011;12634;50.852;5.676;2023-06-22T00:09:08;6.13;;;4.05;;
24467;SDS011;12634;50.852;5.676;2023-06-22T00:11:35;6.03;;;4.40;;
24467;SDS011;12634;50.852;5.676;2023-06-22T00:14:02;5.88;;;3.80;;
24467;SDS011;12634;50.852;5.676;2023-06-22T00:16:31;8.38;;;3.75;;
24467;SDS011;12634;50.852;5.676;2023-06-22T00:18:58;4.97;;;3.88;;
24467;SDS011;12634;50.852;5.676;2023-06-22T00:21:27;6.50;;;3.72;;
24467;SDS011;12634;50.852;5.676;2023-06-22T00:23:54;5.18;;;3.83;;
24467;SDS011;12634;50.852;5.676;2023-06-22T00:26:23;6.22;;;3.75;;
24467;SDS011;12634;50.852;5.676;2023-06-22T00:28:50;5.85;;;3.60;;
24467;SDS011;12634;50.852;5.676;2023-06-22T00:31:18;5.10;;;3.60;;
24467;SDS011;12634;50.852;5.676;2023-06-22T00:33:45;6.13;;;3.53;;
24467;SDS011;12634;50.852;5.676;2023-06-22T00:36:12;5.50;;;4.30;;
24467;SDS011;12634;50.852;5.676;2023-06-22T00:38:41;5.85;;;4.40;;
24467;SDS011;12634;50.852;5.676;2023-06-22T00:41:08;6.35;;;4.90;;
24467;SDS011;12634;50.852;5.676;2023-06-22T00:43:37;8.00;;;5.05;;
24467;SDS011;12634;50.852;5.676;2023-06-22T00:46:04;6.88;;;4.43;;
24467;SDS011;12634;50.852;5.676;2023-06-22T00:48:31;6.40;;;4.28;;
24467;SDS011;12634;50.852;5.676;2023-06-22T00:50:58;7.40;;;4.65;;
24467;SDS011;12634;50.852;5.676;2023-06-22T00:53:26;7.60;;;4.65;;
24467;SDS011;12634;50.852;5.676;2023-06-22T00:55:53;6.60;;;4.90;;
24467;SDS011;12634;50.852;5.676;2023-06-22T00:58:21;6.35;;;4.55;;
24467;SDS011;12634;50.852;5.676;2023-06-22T01:00:51;6.30;;;4.75;;
24467;SDS011;12634;50.852;5.676;2023-06-22T01:03:20;5.55;;;4.07;;
24467;SDS011;12634;50.852;5.676;2023-06-22T01:05:47;5.75;;;4.70;;
24467;SDS011;12634;50.852;5.676;2023-06-22T01:08:18;7.78;;;4.53;;
24467;SDS011;12634;50.852;5.676;2023-06-22T01:10:54;5.95;;;4.13;;
24467;SDS011;12634;50.852;5.676;2023-06-22T01:13:34;5.93;;;4.25;;
24467;SDS011;12634;50.852;5.676;2023-06-22T01:16:07;6.97;;;3.92;;
24467;SDS011;12634;50.852;5.676;2023-06-22T01:18:40;7.63;;;4.38;;
24467;SDS011;12634;50.852;5.676;2023-06-22T01:21:10;8.30;;;4.65;;
24467;SDS011;12634;50.852;5.676;2023-06-22T01:23:46;6.47;;;4.53;;
24467;SDS011;12634;50.852;5.676;2023-06-22T01:26:27;6.43;;;4.20;;
24467;SDS011;12634;50.852;5.676;2023-06-22T01:29:03;6.53;;;4.30;;
24467;SDS011;12634;50.852;5.676;2023-06-22T01:31:32;7.32;;;4.45;;
24467;SDS011;12634;50.852;5.676;2023-06-22T01:34:01;7.20;;;5.03;;
24467;SDS011;12634;50.852;5.676;2023-06-22T01:36:32;5.72;;;4.30;;
24467;SDS011;12634;50.852;5.676;2023-06-22T01:39:00;8.05;;;4.72;;
24467;SDS011;12634;50.852;5.676;2023-06-22T01:41:29;6.60;;;4.75;;
24467;SDS011;12634;50.852;5.676;2023-06-22T01:43:59;8.98;;;5.28;;
24467;SDS011;12634;50.852;5.676;2023-06-22T01:46:29;5.82;;;4.50;;
24467;SDS011;12634;50.852;5.676;2023-06-22T01:48:57;7.72;;;4.85;;
24467;SDS011;12634;50.852;5.676;2023-06-22T01:51:24;7.85;;;4.45;;
24467;SDS011;12634;50.852;5.676;2023-06-22T01:53:51;7.30;;;4.00;;
24467;SDS011;12634;50.852;5.676;2023-06-22T01:56:18;6.07;;;4.63;;
24467;SDS011;12634;50.852;5.676;2023-06-22T01:58:47;7.60;;;4.53;;
24467;SDS011;12634;50.852;5.676;2023-06-22T02:01:18;6.65;;;4.63;;
24467;SDS011;12634;50.852;5.676;2023-06-22T02:04:00;8.20;;;4.72;;
24467;SDS011;12634;50.852;5.676;2023-06-22T02:06:33;7.10;;;4.53;;
24467;SDS011;12634;50.852;5.676;2023-06-22T02:09:06;6.90;;;4.70;;
24467;SDS011;12634;50.852;5.676;2023-06-22T02:11:36;6.40;;;4.90;;
24467;SDS011;12634;50.852;5.676;2023-06-22T02:14:06;10.20;;;5.53;;
24467;SDS011;12634;50.852;5.676;2023-06-22T02:16:34;6.70;;;4.93;;
24467;SDS011;12634;50.852;5.676;2023-06-22T02:19:04;8.00;;;5.32;;
24467;SDS011;12634;50.852;5.676;2023-06-22T02:21:31;7.30;;;5.20;;
24467;SDS011;12634;50.852;5.676;2023-06-22T02:23:58;9.63;;;5.38;;
24467;SDS011;12634;50.852;5.676;2023-06-22T02:26:26;11.63;;;5.35;;
24467;SDS011;12634;50.852;5.676;2023-06-22T02:28:54;9.95;;;6.20;;
24467;SDS011;12634;50.852;5.676;2023-06-22T02:31:21;8.55;;;6.15;;
24467;SDS011;12634;50.852;5.676;2023-06-22T02:33:55;8.50;;;6.10;;
24467;SDS011;12634;50.852;5.676;2023-06-22T02:36:25;9.18;;;6.65;;
24467;SDS011;12634;50.852;5.676;2023-06-22T02:38:55;8.18;;;6.68;;
24467;SDS011;12634;50.852;5.676;2023-06-22T02:41:26;9.52;;;6.40;;
24467;SDS011;12634;50.852;5.676;2023-06-22T02:43:53;9.68;;;6.18;;
24467;SDS011;12634;50.852;5.676;2023-06-22T02:46:20;9.13;;;6.72;;
24467;SDS011;12634;50.852;5.676;2023-06-22T02:48:47;10.20;;;6.95;;
24467;SDS011;12634;50.852;5.676;2023-06-22T02:51:15;10.70;;;7.28;;
24467;SDS011;12634;50.852;5.676;2023-06-22T02:53:43;8.88;;;6.75;;
24467;SDS011;12634;50.852;5.676;2023-06-22T02:56:10;9.75;;;6.80;;
24467;SDS011;12634;50.852;5.676;2023-06-22T02:58:38;9.50;;;7.05;;
24467;SDS011;12634;50.852;5.676;2023-06-22T03:01:05;9.68;;;7.57;;
24467;SDS011;12634;50.852;5.676;2023-06-22T03:03:32;9.80;;;7.68;;
24467;SDS011;12634;50.852;5.676;2023-06-22T03:05:59;9.75;;;6.68;;
24467;SDS011;12634;50.852;5.676;2023-06-22T03:08:27;10.30;;;7.63;;
24467;SDS011;12634;50.852;5.676;2023-06-22T03:10:56;11.98;;;8.00;;
24467;SDS011;12634;50.852;5.676;2023-06-22T03:13:23;9.15;;;7.97;;
24467;SDS011;12634;50.852;5.676;2023-06-22T03:15:50;10.70;;;8.57;;
24467;SDS011;12634;50.852;5.676;2023-06-22T03:18:17;11.88;;;8.70;;
24467;SDS011;12634;50.852;5.676;2023-06-22T03:20:47;13.00;;;8.98;;
24467;SDS011;12634;50.852;5.676;2023-06-22T03:23:14;12.60;;;8.60;;
24467;SDS011;12634;50.852;5.676;2023-06-22T03:25:42;10.30;;;8.63;;
24467;SDS011;12634;50.852;5.676;2023-06-22T03:28:11;14.45;;;8.75;;
24467;SDS011;12634;50.852;5.676;2023-06-22T03:30:38;11.48;;;9.00;;
24467;SDS011;12634;50.852;5.676;2023-06-22T03:33:05;11.50;;;9.50;;
24467;SDS011;12634;50.852;5.676;2023-06-22T03:35:32;13.13;;;8.82;;
24467;SDS011;12634;50.852;5.676;2023-06-22T03:37:59;14.07;;;9.48;;
24467;SDS011;12634;50.852;5.676;2023-06-22T03:40:27;11.43;;;9.73;;
24467;SDS011;12634;50.852;5.676;2023-06-22T03:42:54;14.35;;;9.38;;
24467;SDS011;12634;50.852;5.676;2023-06-22T03:45:23;13.30;;;9.40;;
24467;SDS011;12634;50.852;5.676;2023-06-22T03:47:50;12.95;;;9.63;;
24467;SDS011;12634;50.852;5.676;2023-06-22T03:50:18;13.98;;;9.88;;
24467;SDS011;12634;50.852;5.676;2023-06-22T03:52:46;11.90;;;10.00;;
24467;SDS011;12634;50.852;5.676;2023-06-22T03:55:13;11.02;;;9.43;;
24467;SDS011;12634;50.852;5.676;2023-06-22T03:57:41;12.60;;;9.88;;
24467;SDS011;12634;50.852;5.676;2023-06-22T04:00:08;13.05;;;9.98;;
24467;SDS011;12634;50.852;5.676;2023-06-22T04:02:37;13.27;;;9.52;;
24467;SDS011;12634;50.852;5.676;2023-06-22T04:05:05;12.32;;;10.07;;
24467;SDS011;12634;50.852;5.676;2023-06-22T04:07:32;16.60;;;11.93;;
24467;SDS011;12634;50.852;5.676;2023-06-22T04:10:02;21.42;;;12.75;;
24467;SDS011;12634;50.852;5.676;2023-06-22T04:12:30;18.15;;;12.80;;
24467;SDS011;12634;50.852;5.676;2023-06-22T04:14:57;17.98;;;13.32;;
24467;SDS011;12634;50.852;5.676;2023-06-22T04:17:24;21.38;;;15.73;;
24467;SDS011;12634;50.852;5.676;2023-06-22T04:19:53;18.38;;;14.85;;
24467;SDS011;12634;50.852;5.676;2023-06-22T04:22:20;22.58;;;14.52;;
24467;SDS011;12634;50.852;5.676;2023-06-22T04:24:47;16.52;;;13.63;;
24467;SDS011;12634;50.852;5.676;2023-06-22T04:27:18;17.08;;;14.73;;
24467;SDS011;12634;50.852;5.676;2023-06-22T04:29:48;16.17;;;14.48;;
24467;SDS011;12634;50.852;5.676;2023-06-22T04:32:16;24.17;;;15.23;;
24467;SDS011;12634;50.852;5.676;2023-06-22T04:34:44;20.58;;;15.75;;
24467;SDS011;12634;50.852;5.676;2023-06-22T04:37:12;16.60;;;14.88;;
24467;SDS011;12634;50.852;5.676;2023-06-22T04:39:41;20.55;;;16.02;;
24467;SDS011;12634;50.852;5.676;2023-06-22T04:42:08;21.65;;;15.48;;
24467;SDS011;12634;50.852;5.676;2023-06-22T04:44:35;17.98;;;15.82;;
24467;SDS011;12634;50.852;5.676;2023-06-22T04:47:02;18.38;;;15.38;;
24467;SDS011;12634;50.852;5.676;2023-06-22T04:49:33;18.98;;;16.60;;
24467;SDS011;12634;50.852;5.676;2023-06-22T04:52:02;17.70;;;15.80;;
24467;SDS011;12634;50.852;5.676;2023-06-22T04:54:33;17.40;;;15.60;;
24467;SDS011;12634;50.852;5.676;2023-06-22T04:57:01;19.45;;;16.50;;
24467;SDS011;12634;50.852;5.676;2023-06-22T04:59:30;22.42;;;15.98;;
24467;SDS011;12634;50.852;5.676;2023-06-22T05:01:58;23.02;;;17.77;;
24467;SDS011;12634;50.852;5.676;2023-06-22T05:04:27;20.00;;;17.20;;
24467;SDS011;12634;50.852;5.676;2023-06-22T05:06:57;21.65;;;16.92;;
24467;SDS011;12634;50.852;5.676;2023-06-22T05:09:25;18.60;;;16.60;;
24467;SDS011;12634;50.852;5.676;2023-06-22T05:11:54;22.10;;;17.60;;
24467;SDS011;12634;50.852;5.676;2023-06-22T05:14:22;21.25;;;17.63;;
24467;SDS011;12634;50.852;5.676;2023-06-22T05:16:49;21.23;;;17.48;;
24467;SDS011;12634;50.852;5.676;2023-06-22T05:19:17;19.05;;;16.05;;
24467;SDS011;12634;50.852;5.676;2023-06-22T05:21:44;21.63;;;17.38;;
24467;SDS011;12634;50.852;5.676;2023-06-22T05:24:11;20.70;;;16.80;;
24467;SDS011;12634;50.852;5.676;2023-06-22T05:26:38;22.73;;;18.35;;
24467;SDS011;12634;50.852;5.676;2023-06-22T05:29:07;19.77;;;17.38;;
24467;SDS011;12634;50.852;5.676;2023-06-22T05:31:34;21.00;;;18.70;;
24467;SDS011;12634;50.852;5.676;2023-06-22T05:34:02;21.25;;;17.38;;
24467;SDS011;12634;50.852;5.676;2023-06-22T05:36:29;22.88;;;18.73;;
24467;SDS011;12634;50.852;5.676;2023-06-22T05:38:56;22.17;;;18.25;;
24467;SDS011;12634;50.852;5.676;2023-06-22T05:41:24;23.75;;;18.15;;
24467;SDS011;12634;50.852;5.676;2023-06-22T05:43:51;22.67;;;17.15;;
24467;SDS011;12634;50.852;5.676;2023-06-22T05:46:20;18.08;;;16.02;;
24467;SDS011;12634;50.852;5.676;2023-06-22T05:48:47;21.02;;;16.80;;
24467;SDS011;12634;50.852;5.676;2023-06-22T05:51:14;20.30;;;16.30;;
24467;SDS011;12634;50.852;5.676;2023-06-22T05:53:41;27.45;;;16.92;;
24467;SDS011;12634;50.852;5.676;2023-06-22T05:56:09;19.10;;;16.88;;
24467;SDS011;12634;50.852;5.676;2023-06-22T05:58:36;18.77;;;16.48;;
24467;SDS011;12634;50.852;5.676;2023-06-22T06:01:03;20.13;;;16.38;;
24467;SDS011;12634;50.852;5.676;2023-06-22T06:03:32;20.73;;;16.27;;
24467;SDS011;12634;50.852;5.676;2023-06-22T06:05:59;23.13;;;16.88;;
24467;SDS011;12634;50.852;5.676;2023-06-22T06:08:27;21.60;;;15.95;;
24467;SDS011;12634;50.852;5.676;2023-06-22T06:10:54;17.25;;;15.43;;
24467;SDS011;12634;50.852;5.676;2023-06-22T06:13:22;21.75;;;16.05;;
24467;SDS011;12634;50.852;5.676;2023-06-22T06:15:50;17.23;;;14.98;;
24467;SDS011;12634;50.852;5.676;2023-06-22T06:18:20;25.90;;;15.10;;
24467;SDS011;12634;50.852;5.676;2023-06-22T06:20:48;17.00;;;15.07;;
24467;SDS011;12634;50.852;5.676;2023-06-22T06:23:15;16.13;;;14.43;;
24467;SDS011;12634;50.852;5.676;2023-06-22T06:25:43;17.55;;;14.55;;
24467;SDS011;12634;50.852;5.676;2023-06-22T06:28:10;16.38;;;14.55;;
24467;SDS011;12634;50.852;5.676;2023-06-22T06:30:37;17.20;;;14.43;;
24467;SDS011;12634;50.852;5.676;2023-06-22T06:33:04;16.40;;;14.20;;
24467;SDS011;12634;50.852;5.676;2023-06-22T06:35:34;17.55;;;14.32;;
24467;SDS011;12634;50.852;5.676;2023-06-22T06:38:02;19.02;;;14.07;;
24467;SDS011;12634;50.852;5.676;2023-06-22T06:40:30;18.70;;;14.05;;
24467;SDS011;12634;50.852;5.676;2023-06-22T06:42:57;16.33;;;13.50;;
24467;SDS011;12634;50.852;5.676;2023-06-22T06:45:24;16.58;;;12.32;;
24467;SDS011;12634;50.852;5.676;2023-06-22T06:47:53;15.32;;;13.55;;
24467;SDS011;12634;50.852;5.676;2023-06-22T06:50:20;15.13;;;12.15;;
24467;SDS011;12634;50.852;5.676;2023-06-22T06:52:48;21.10;;;12.85;;
24467;SDS011;12634;50.852;5.676;2023-06-22T06:55:18;15.70;;;13.32;;
24467;SDS011;12634;50.852;5.676;2023-06-22T06:57:45;17.50;;;13.57;;
24467;SDS011;12634;50.852;5.676;2023-06-22T07:00:13;18.60;;;13.65;;
24467;SDS011;12634;50.852;5.676;2023-06-22T07:02:42;15.15;;;13.07;;
24467;SDS011;12634;50.852;5.676;2023-06-22T07:05:11;14.70;;;12.52;;
24467;SDS011;12634;50.852;5.676;2023-06-22T07:07:39;16.85;;;12.52;;
24467;SDS011;12634;50.852;5.676;2023-06-22T07:10:07;17.25;;;12.93;;
24467;SDS011;12634;50.852;5.676;2023-06-22T07:12:36;15.10;;;12.38;;
24467;SDS011;12634;50.852;5.676;2023-06-22T07:15:04;21.55;;;13.20;;
24467;SDS011;12634;50.852;5.676;2023-06-22T07:17:33;17.08;;;12.35;;
24467;SDS011;12634;50.852;5.676;2023-06-22T07:20:01;17.60;;;13.25;;
24467;SDS011;12634;50.852;5.676;2023-06-22T07:22:33;17.30;;;13.25;;
24467;SDS011;12634;50.852;5.676;2023-06-22T07:25:00;14.93;;;12.75;;
24467;SDS011;12634;50.852;5.676;2023-06-22T07:30:05;17.70;;;13.63;;
24467;SDS011;12634;50.852;5.676;2023-06-22T07:32:33;15.10;;;12.93;;
24467;SDS011;12634;50.852;5.676;2023-06-22T07:35:01;18.25;;;13.48;;
24467;SDS011;12634;50.852;5.676;2023-06-22T07:37:29;17.63;;;12.70;;
24467;SDS011;12634;50.852;5.676;2023-06-22T07:39:56;18.83;;;12.70;;
24467;SDS011;12634;50.852;5.676;2023-06-22T07:42:24;15.73;;;12.38;;
24467;SDS011;12634;50.852;5.676;2023-06-22T07:44:53;14.82;;;11.27;;
24467;SDS011;12634;50.852;5.676;2023-06-22T07:47:21;16.15;;;11.90;;
24467;SDS011;12634;50.852;5.676;2023-06-22T07:49:50;14.48;;;11.02;;
24467;SDS011;12634;50.852;5.676;2023-06-22T07:52:19;14.50;;;11.65;;
24467;SDS011;12634;50.852;5.676;2023-06-22T07:54:47;15.60;;;11.25;;
24467;SDS011;12634;50.852;5.676;2023-06-22T07:57:14;13.18;;;10.68;;
24467;SDS011;12634;50.852;5.676;2023-06-22T07:59:42;16.60;;;10.30;;
24467;SDS011;12634;50.852;5.676;2023-06-22T08:02:10;12.05;;;9.43;;
24467;SDS011;12634;50.852;5.676;2023-06-22T08:04:37;13.73;;;10.10;;
24467;SDS011;12634;50.852;5.676;2023-06-22T08:07:06;14.55;;;9.55;;
24467;SDS011;12634;50.852;5.676;2023-06-22T08:09:34;11.73;;;10.00;;
24467;SDS011;12634;50.852;5.676;2023-06-22T08:12:02;12.32;;;10.30;;
24467;SDS011;12634;50.852;5.676;2023-06-22T08:14:30;12.63;;;9.98;;
24467;SDS011;12634;50.852;5.676;2023-06-22T08:16:57;11.43;;;9.63;;
24467;SDS011;12634;50.852;5.676;2023-06-22T08:19:26;13.02;;;9.98;;
24467;SDS011;12634;50.852;5.676;2023-06-22T08:21:53;11.38;;;10.10;;
24467;SDS011;12634;50.852;5.676;2023-06-22T08:24:20;12.45;;;9.90;;
24467;SDS011;12634;50.852;5.676;2023-06-22T08:26:49;10.63;;;9.40;;
24467;SDS011;12634;50.852;5.676;2023-06-22T08:29:18;11.32;;;9.73;;
24467;SDS011;12634;50.852;5.676;2023-06-22T08:31:45;15.07;;;9.95;;
24467;SDS011;12634;50.852;5.676;2023-06-22T08:34:12;15.38;;;10.32;;
24467;SDS011;12634;50.852;5.676;2023-06-22T08:36:41;15.35;;;10.98;;
24467;SDS011;12634;50.852;5.676;2023-06-22T08:39:08;12.40;;;10.50;;
24467;SDS011;12634;50.852;5.676;2023-06-22T08:41:36;12.63;;;10.60;;
24467;SDS011;12634;50.852;5.676;2023-06-22T08:44:03;15.05;;;10.95;;
24467;SDS011;12634;50.852;5.676;2023-06-22T08:46:30;12.13;;;10.82;;
24467;SDS011;12634;50.852;5.676;2023-06-22T08:48:58;11.50;;;10.20;;
24467;SDS011;12634;50.852;5.676;2023-06-22T08:51:26;14.85;;;10.60;;
24467;SDS011;12634;50.852;5.676;2023-06-22T08:53:55;14.32;;;11.52;;
24467;SDS011;12634;50.852;5.676;2023-06-22T08:56:22;14.15;;;11.05;;
24467;SDS011;12634;50.852;5.676;2023-06-22T08:58:49;15.15;;;12.35;;
24467;SDS011;12634;50.852;5.676;2023-06-22T09:01:16;15.13;;;11.15;;
24467;SDS011;12634;50.852;5.676;2023-06-22T09:03:44;14.30;;;12.70;;
24467;SDS011;12634;50.852;5.676;2023-06-22T09:06:19;15.07;;;11.82;;
24467;SDS011;12634;50.852;5.676;2023-06-22T09:08:46;15.05;;;11.88;;
24467;SDS011;12634;50.852;5.676;2023-06-22T09:11:15;18.02;;;12.07;;
24467;SDS011;12634;50.852;5.676;2023-06-22T09:13:42;16.15;;;12.88;;
24467;SDS011;12634;50.852;5.676;2023-06-22T09:16:11;17.67;;;11.68;;
24467;SDS011;12634;50.852;5.676;2023-06-22T09:18:38;18.15;;;12.23;;
24467;SDS011;12634;50.852;5.676;2023-06-22T09:21:06;18.08;;;12.50;;
24467;SDS011;12634;50.852;5.676;2023-06-22T09:23:33;16.30;;;13.00;;
24467;SDS011;12634;50.852;5.676;2023-06-22T09:26:00;16.85;;;12.90;;
24467;SDS011;12634;50.852;5.676;2023-06-22T09:28:32;16.30;;;14.38;;
24467;SDS011;12634;50.852;5.676;2023-06-22T09:30:59;19.13;;;13.85;;
24467;SDS011;12634;50.852;5.676;2023-06-22T09:33:27;21.55;;;13.45;;
24467;SDS011;12634;50.852;5.676;2023-06-22T09:35:54;16.27;;;14.55;;
24467;SDS011;12634;50.852;5.676;2023-06-22T09:38:21;15.68;;;13.57;;
24467;SDS011;12634;50.852;5.676;2023-06-22T09:40:48;17.23;;;13.02;;
24467;SDS011;12634;50.852;5.676;2023-06-22T09:43:16;14.48;;;12.95;;
24467;SDS011;12634;50.852;5.676;2023-06-22T09:45:45;18.90;;;13.27;;
24467;SDS011;12634;50.852;5.676;2023-06-22T09:48:12;21.40;;;14.25;;
24467;SDS011;12634;50.852;5.676;2023-06-22T09:50:39;15.63;;;13.02;;
24467;SDS011;12634;50.852;5.676;2023-06-22T09:53:06;15.52;;;13.52;;
24467;SDS011;12634;50.852;5.676;2023-06-22T09:55:34;16.20;;;13.40;;
24467;SDS011;12634;50.852;5.676;2023-06-22T09:58:01;15.85;;;13.10;;
24467;SDS011;12634;50.852;5.676;2023-06-22T10:00:28;16.98;;;13.88;;
24467;SDS011;12634;50.852;5.676;2023-06-22T10:02:57;19.30;;;14.68;;
24467;SDS011;12634;50.852;5.676;2023-06-22T10:05:24;17.95;;;16.05;;
24467;SDS011;12634;50.852;5.676;2023-06-22T10:07:51;18.70;;;16.13;;
24467;SDS011;12634;50.852;5.676;2023-06-22T10:10:18;20.70;;;16.65;;
24467;SDS011;12634;50.852;5.676;2023-06-22T10:12:46;21.17;;;17.45;;
24467;SDS011;12634;50.852;5.676;2023-06-22T10:15:14;19.60;;;17.60;;
24467;SDS011;12634;50.852;5.676;2023-06-22T10:17:41;21.70;;;18.02;;
24467;SDS011;12634;50.852;5.676;2023-06-22T10:20:11;21.90;;;19.70;;
24467;SDS011;12634;50.852;5.676;2023-06-22T10:22:38;22.75;;;18.90;;
24467;SDS011;12634;50.852;5.676;2023-06-22T10:25:07;24.83;;;20.38;;
24467;SDS011;12634;50.852;5.676;2023-06-22T10:27:34;23.48;;;20.95;;
24467;SDS011;12634;50.852;5.676;2023-06-22T10:30:05;26.10;;;21.35;;
24467;SDS011;12634;50.852;5.676;2023-06-22T10:32:33;30.52;;;21.80;;
24467;SDS011;12634;50.852;5.676;2023-06-22T10:35:01;25.17;;;22.50;;
24467;SDS011;12634;50.852;5.676;2023-06-22T10:37:30;25.45;;;22.65;;
24467;SDS011;12634;50.852;5.676;2023-06-22T10:39:57;27.48;;;23.58;;
24467;SDS011;12634;50.852;5.676;2023-06-22T10:42:24;26.35;;;23.55;;
24467;SDS011;12634;50.852;5.676;2023-06-22T10:44:51;25.20;;;22.15;;
24467;SDS011;12634;50.852;5.676;2023-06-22T10:47:19;24.55;;;21.13;;
24467;SDS011;12634;50.852;5.676;2023-06-22T10:49:46;24.20;;;21.52;;
24467;SDS011;12634;50.852;5.676;2023-06-22T10:52:13;26.95;;;21.80;;
24467;SDS011;12634;50.852;5.676;2023-06-22T10:54:42;25.80;;;20.02;;
24467;SDS011;12634;50.852;5.676;2023-06-22T10:57:09;22.27;;;19.83;;
24467;SDS011;12634;50.852;5.676;2023-06-22T10:59:36;24.15;;;19.90;;
24467;SDS011;12634;50.852;5.676;2023-06-22T11:02:03;23.67;;;19.27;;
24467;SDS011;12634;50.852;5.676;2023-06-22T11:04:31;19.90;;;17.33;;
24467;SDS011;12634;50.852;5.676;2023-06-22T11:06:58;21.52;;;17.05;;
24467;SDS011;12634;50.852;5.676;2023-06-22T11:09:25;21.25;;;17.67;;
24467;SDS011;12634;50.852;5.676;2023-06-22T11:11:55;19.33;;;16.58;;
24467;SDS011;12634;50.852;5.676;2023-06-22T11:14:24;19.98;;;17.73;;
24467;SDS011;12634;50.852;5.676;2023-06-22T11:16:51;23.80;;;18.13;;
24467;SDS011;12634;50.852;5.676;2023-06-22T11:19:18;20.60;;;18.40;;
24467;SDS011;12634;50.852;5.676;2023-06-22T11:21:46;23.27;;;18.50;;
24467;SDS011;12634;50.852;5.676;2023-06-22T11:24:13;20.58;;;18.38;;
24467;SDS011;12634;50.852;5.676;2023-06-22T11:26:41;20.05;;;17.90;;
24467;SDS011;12634;50.852;5.676;2023-06-22T11:29:09;20.10;;;18.05;;
24467;SDS011;12634;50.852;5.676;2023-06-22T11:31:37;19.73;;;17.50;;
24467;SDS011;12634;50.852;5.676;2023-06-22T11:34:04;20.30;;;18.25;;
24467;SDS011;12634;50.852;5.676;2023-06-22T11:36:31;18.83;;;16.98;;
24467;SDS011;12634;50.852;5.676;2023-06-22T11:39:00;19.25;;;17.30;;
24467;SDS011;12634;50.852;5.676;2023-06-22T11:41:27;20.02;;;17.92;;
24467;SDS011;12634;50.852;5.676;2023-06-22T11:43:54;21.92;;;19.20;;
24467;SDS011;12634;50.852;5.676;2023-06-22T11:46:23;22.15;;;18.63;;
24467;SDS011;12634;50.852;5.676;2023-06-22T11:48:50;21.23;;;19.02;;
24467;SDS011;12634;50.852;5.676;2023-06-22T11:51:17;22.10;;;19.50;;
24467;SDS011;12634;50.852;5.676;2023-06-22T11:53:45;22.15;;;19.27;;
24467;SDS011;12634;50.852;5.676;2023-06-22T11:56:12;22.42;;;20.23;;
24467;SDS011;12634;50.852;5.676;2023-06-22T11:58:39;26.05;;;20.98;;
24467;SDS011;12634;50.852;5.676;2023-06-22T12:01:06;24.83;;;21.75;;
24467;SDS011;12634;50.852;5.676;2023-06-22T12:03:35;24.80;;;21.73;;
24467;SDS011;12634;50.852;5.676;2023-06-22T12:06:02;28.42;;;23.77;;
24467;SDS011;12634;50.852;5.676;2023-06-22T12:08:29;28.08;;;23.33;;
24467;SDS011;12634;50.852;5.676;2023-06-22T12:10:56;27.50;;;24.67;;
24467;SDS011;12634;50.852;5.676;2023-06-22T12:13:23;28.20;;;25.17;;
24467;SDS011;12634;50.852;5.676;2023-06-22T12:15:51;32.13;;;26.98;;
24467;SDS011;12634;50.852;5.676;2023-06-22T12:18:18;29.88;;;26.75;;
24467;SDS011;12634;50.852;5.676;2023-06-22T12:20:48;28.88;;;25.73;;
24467;SDS011;12634;50.852;5.676;2023-06-22T12:23:15;27.00;;;24.17;;
24467;SDS011;12634;50.852;5.676;2023-06-22T12:25:44;27.05;;;24.25;;
24467;SDS011;12634;50.852;5.676;2023-06-22T12:28:12;26.30;;;23.50;;
24467;SDS011;12634;50.852;5.676;2023-06-22T12:30:39;28.63;;;25.67;;
24467;SDS011;12634;50.852;5.676;2023-06-22T12:33:06;29.52;;;24.55;;
24467;SDS011;12634;50.852;5.676;2023-06-22T12:35:34;29.58;;;25.20;;
24467;SDS011;12634;50.852;5.676;2023-06-22T12:38:02;27.73;;;24.67;;
24467;SDS011;12634;50.852;5.676;2023-06-22T12:40:31;27.15;;;24.40;;
24467;SDS011;12634;50.852;5.676;2023-06-22T12:42:59;27.30;;;23.73;;
24467;SDS011;12634;50.852;5.676;2023-06-22T12:45:27;26.20;;;23.20;;
24467;SDS011;12634;50.852;5.676;2023-06-22T12:47:58;25.70;;;23.02;;
24467;SDS011;12634;50.852;5.676;2023-06-22T12:50:26;26.92;;;24.02;;
24467;SDS011;12634;50.852;5.676;2023-06-22T12:52:53;26.35;;;23.55;;
24467;SDS011;12634;50.852;5.676;2023-06-22T12:55:21;26.65;;;23.92;;
24467;SDS011;12634;50.852;5.676;2023-06-22T12:57:49;27.45;;;24.58;;
24467;SDS011;12634;50.852;5.676;2023-06-22T13:00:16;28.45;;;25.50;;
24467;SDS011;12634;50.852;5.676;2023-06-22T13:02:45;27.92;;;23.92;;
24467;SDS011;12634;50.852;5.676;2023-06-22T13:05:12;28.42;;;25.40;;
24467;SDS011;12634;50.852;5.676;2023-06-22T13:07:39;29.92;;;26.75;;
24467;SDS011;12634;50.852;5.676;2023-06-22T13:10:07;29.27;;;26.27;;
24467;SDS011;12634;50.852;5.676;2023-06-22T13:12:36;31.48;;;28.10;;
24467;SDS011;12634;50.852;5.676;2023-06-22T13:15:04;32.60;;;29.13;;
24467;SDS011;12634;50.852;5.676;2023-06-22T13:17:33;32.50;;;27.63;;
24467;SDS011;12634;50.852;5.676;2023-06-22T13:20:00;29.77;;;26.48;;
24467;SDS011;12634;50.852;5.676;2023-06-22T13:22:30;29.92;;;26.83;;
24467;SDS011;12634;50.852;5.676;2023-06-22T13:24:59;30.42;;;27.35;;
24467;SDS011;12634;50.852;5.676;2023-06-22T13:27:27;30.50;;;27.40;;
24467;SDS011;12634;50.852;5.676;2023-06-22T13:29:55;32.33;;;28.85;;
24467;SDS011;12634;50.852;5.676;2023-06-22T13:32:23;32.50;;;28.10;;
24467;SDS011;12634;50.852;5.676;2023-06-22T13:34:50;31.67;;;28.35;;
24467;SDS011;12634;50.852;5.676;2023-06-22T13:37:18;32.70;;;29.30;;
24467;SDS011;12634;50.852;5.676;2023-06-22T13:39:45;32.00;;;28.45;;
24467;SDS011;12634;50.852;5.676;2023-06-22T13:42:13;31.85;;;28.50;;
24467;SDS011;12634;50.852;5.676;2023-06-22T13:44:40;34.58;;;30.25;;
24467;SDS011;12634;50.852;5.676;2023-06-22T13:47:08;33.28;;;28.25;;
24467;SDS011;12634;50.852;5.676;2023-06-22T13:49:36;31.33;;;27.95;;
24467;SDS011;12634;50.852;5.676;2023-06-22T13:52:03;32.13;;;28.90;;
24467;SDS011;12634;50.852;5.676;2023-06-22T13:54:35;32.30;;;28.80;;
24467;SDS011;12634;50.852;5.676;2023-06-22T13:57:02;35.67;;;31.90;;
24467;SDS011;12634;50.852;5.676;2023-06-22T13:59:30;38.90;;;34.00;;
24467;SDS011;12634;50.852;5.676;2023-06-22T14:01:57;36.10;;;32.45;;
24467;SDS011;12634;50.852;5.676;2023-06-22T14:04:26;41.53;;;34.45;;
24467;SDS011;12634;50.852;5.676;2023-06-22T14:06:54;40.97;;;33.90;;
24467;SDS011;12634;50.852;5.676;2023-06-22T14:09:22;38.22;;;33.65;;
24467;SDS011;12634;50.852;5.676;2023-06-22T14:11:49;41.60;;;35.25;;
24467;SDS011;12634;50.852;5.676;2023-06-22T14:14:16;37.03;;;33.22;;
24467;SDS011;12634;50.852;5.676;2023-06-22T14:16:43;39.58;;;35.25;;
24467;SDS011;12634;50.852;5.676;2023-06-22T14:19:11;38.53;;;34.40;;
24467;SDS011;12634;50.852;5.676;2023-06-22T14:21:39;40.22;;;36.10;;
24467;SDS011;12634;50.852;5.676;2023-06-22T14:24:07;39.60;;;35.38;;
24467;SDS011;12634;50.852;5.676;2023-06-22T14:26:34;41.15;;;36.53;;
24467;SDS011;12634;50.852;5.676;2023-06-22T14:29:01;40.13;;;35.97;;
24467;SDS011;12634;50.852;5.676;2023-06-22T14:31:29;38.88;;;34.95;;
24467;SDS011;12634;50.852;5.676;2023-06-22T14:33:56;38.65;;;34.45;;
24467;SDS011;12634;50.852;5.676;2023-06-22T14:36:23;38.28;;;34.28;;